createdAt,value
2017-09-22T00:01:09.705Z,17.57
2017-09-22T00:03:37.361Z,8.17
2017-09-22T00:06:04.924Z,11.07
2017-09-22T00:08:32.520Z,10.83
2017-09-22T00:11:00.091Z,10.70
2017-09-22T00:13:28.622Z,6.97
2017-09-22T00:15:56.177Z,7.90
2017-09-22T00:18:23.829Z,7.47
2017-09-22T00:20:51.409Z,7.53
2017-09-22T00:23:19.035Z,11.40
2017-09-22T00:25:47.397Z,10.37
2017-09-22T00:28:14.992Z,10.80
2017-09-22T00:30:43.313Z,10.70
2017-09-22T00:33:10.883Z,10.43
2017-09-22T00:35:38.670Z,8.73
2017-09-22T00:38:06.287Z,9.33
2017-09-22T00:40:33.896Z,11.63
2017-09-22T00:43:01.478Z,8.30
2017-09-22T00:45:29.141Z,8.10
2017-09-22T00:47:57.512Z,7.23
2017-09-22T00:50:25.069Z,8.30
2017-09-22T00:52:52.654Z,8.43
2017-09-22T00:55:20.274Z,8.50
2017-09-22T00:57:47.874Z,7.17
2017-09-22T01:00:15.457Z,8.70
2017-09-22T01:02:43.809Z,7.70
2017-09-22T01:05:11.445Z,9.30
2017-09-22T01:07:39.038Z,8.50
2017-09-22T01:10:06.673Z,11.07
2017-09-22T01:12:34.233Z,8.13
2017-09-22T01:15:01.815Z,8.20
2017-09-22T01:17:29.393Z,10.47
2017-09-22T01:19:56.969Z,10.37
2017-09-22T01:22:25.322Z,8.93
2017-09-22T01:24:52.901Z,8.70
2017-09-22T01:27:20.464Z,10.60
2017-09-22T01:29:48.077Z,10.20
2017-09-22T01:32:16.429Z,8.30
2017-09-22T01:34:44.034Z,8.37
2017-09-22T01:37:11.641Z,7.67
2017-09-22T01:39:39.207Z,11.00
2017-09-22T01:42:06.814Z,8.40
2017-09-22T01:44:35.153Z,12.03
2017-09-22T01:47:02.774Z,7.63
2017-09-22T01:49:30.384Z,9.17
2017-09-22T01:51:58.297Z,8.17
2017-09-22T01:54:26.640Z,9.43
2017-09-22T01:56:54.369Z,11.20
2017-09-22T01:59:21.981Z,6.67
2017-09-22T02:01:49.565Z,9.97
2017-09-22T02:04:17.903Z,7.90
2017-09-22T02:06:45.489Z,16.13
2017-09-22T02:09:13.045Z,9.97
2017-09-22T02:11:40.643Z,9.00
2017-09-22T02:14:08.980Z,9.27
2017-09-22T02:16:36.581Z,10.50
2017-09-22T02:19:04.169Z,12.10
2017-09-22T02:21:31.752Z,10.90
2017-09-22T02:23:59.342Z,9.37
2017-09-22T02:26:26.901Z,8.00
2017-09-22T02:28:54.492Z,11.37
2017-09-22T02:31:22.058Z,7.27
2017-09-22T02:33:49.631Z,12.00
2017-09-22T02:36:17.248Z,6.90
2017-09-22T02:38:44.838Z,9.63
2017-09-22T02:41:12.462Z,9.57
2017-09-22T02:43:40.025Z,8.70
2017-09-22T02:46:07.656Z,8.27
2017-09-22T02:48:36.023Z,11.60
2017-09-22T02:51:03.585Z,8.27
2017-09-22T02:53:31.201Z,11.60
2017-09-22T02:55:58.757Z,8.37
2017-09-22T02:58:26.373Z,11.37
2017-09-22T03:00:53.952Z,10.97
2017-09-22T03:03:22.329Z,9.00
2017-09-22T03:05:49.904Z,9.77
2017-09-22T03:08:17.478Z,10.63
2017-09-22T03:10:45.822Z,11.20
2017-09-22T03:13:13.422Z,12.37
2017-09-22T03:15:41.755Z,9.87
2017-09-22T03:18:09.347Z,13.20
2017-09-22T03:20:36.952Z,10.40
2017-09-22T03:23:04.508Z,12.63
2017-09-22T03:25:32.859Z,12.20
2017-09-22T03:28:00.439Z,8.60
2017-09-22T03:30:28.831Z,10.00
2017-09-22T03:32:57.203Z,9.63
2017-09-22T03:35:25.525Z,11.40
2017-09-22T03:37:53.119Z,9.33
2017-09-22T03:40:20.705Z,12.03
2017-09-22T03:42:48.318Z,10.03
2017-09-22T03:45:15.884Z,16.30
2017-09-22T03:47:43.497Z,10.03
2017-09-22T03:50:11.057Z,11.03
2017-09-22T03:52:38.621Z,11.83
2017-09-22T03:55:06.240Z,9.37
2017-09-22T03:57:33.804Z,9.10
2017-09-22T04:00:01.395Z,8.87
2017-09-22T04:02:28.948Z,8.73
2017-09-22T04:04:56.520Z,13.47
2017-09-22T04:07:24.095Z,11.27
2017-09-22T04:09:51.695Z,10.07
2017-09-22T04:12:20.013Z,10.97
2017-09-22T04:14:47.628Z,14.07
2017-09-22T04:17:15.951Z,11.43
2017-09-22T04:19:43.519Z,9.87
2017-09-22T04:22:11.110Z,11.93
2017-09-22T04:24:38.679Z,14.63
2017-09-22T04:27:06.265Z,8.80
2017-09-22T04:29:34.602Z,11.70
2017-09-22T04:32:02.203Z,9.30
2017-09-22T04:34:29.775Z,10.37
2017-09-22T04:36:58.130Z,15.20
2017-09-22T04:39:25.691Z,10.93
2017-09-22T04:41:53.287Z,11.30
2017-09-22T04:44:21.621Z,10.80
2017-09-22T04:46:49.215Z,13.67
2017-09-22T04:49:16.786Z,10.50
2017-09-22T04:51:45.114Z,11.47
2017-09-22T04:54:12.703Z,11.20
2017-09-22T04:56:40.274Z,13.23
2017-09-22T04:59:07.875Z,13.57
2017-09-22T05:01:36.196Z,11.50
2017-09-22T05:04:03.788Z,15.03
2017-09-22T05:06:31.399Z,11.80
2017-09-22T05:08:58.954Z,19.00
2017-09-22T05:11:27.313Z,13.20
2017-09-22T05:13:54.868Z,12.03
2017-09-22T05:16:23.777Z,11.87
2017-09-22T05:18:52.442Z,10.00
2017-09-22T05:21:20.025Z,11.20
2017-09-22T05:23:47.605Z,10.40
2017-09-22T05:26:15.944Z,11.67
2017-09-22T05:28:43.579Z,12.00
2017-09-22T05:31:11.185Z,13.30
2017-09-22T05:33:38.754Z,13.20
2017-09-22T05:36:06.357Z,11.07
2017-09-22T05:38:34.252Z,10.87
2017-09-22T05:41:01.823Z,11.77
2017-09-22T05:43:29.584Z,17.50
2017-09-22T05:45:57.145Z,12.27
2017-09-22T05:48:24.762Z,21.87
2017-09-22T05:50:52.344Z,9.97
2017-09-22T05:53:20.683Z,11.67
2017-09-22T05:55:49.203Z,11.83
2017-09-22T05:58:17.554Z,9.20
2017-09-22T06:00:45.157Z,20.10
2017-09-22T06:03:13.504Z,15.23
2017-09-22T06:05:41.877Z,13.87
2017-09-22T06:08:09.511Z,16.20
2017-09-22T06:10:37.095Z,13.30
2017-09-22T06:13:04.697Z,11.90
2017-09-22T06:15:33.204Z,9.83
2017-09-22T06:18:00.849Z,17.10
2017-09-22T06:20:28.429Z,12.80
2017-09-22T06:22:56.961Z,16.00
2017-09-22T06:25:24.832Z,9.20
2017-09-22T06:27:52.417Z,15.60
2017-09-22T06:30:20.026Z,14.03
2017-09-22T06:32:47.608Z,13.63
2017-09-22T06:35:15.270Z,11.07
2017-09-22T06:37:42.890Z,15.63
2017-09-22T06:40:10.491Z,11.43
2017-09-22T06:42:38.628Z,16.13
2017-09-22T06:45:06.267Z,15.10
2017-09-22T06:47:33.852Z,13.17
2017-09-22T06:50:01.426Z,13.90
2017-09-22T06:52:29.051Z,12.83
2017-09-22T06:54:56.623Z,13.87
2017-09-22T06:57:24.233Z,16.47
2017-09-22T06:59:52.570Z,13.20
2017-09-22T07:02:20.159Z,13.17
2017-09-22T07:04:47.825Z,17.87
2017-09-22T07:07:15.389Z,16.50
2017-09-22T07:09:42.987Z,17.97
2017-09-22T07:12:10.567Z,15.43
2017-09-22T07:14:38.241Z,18.73
2017-09-22T07:17:05.801Z,16.30
2017-09-22T07:19:33.384Z,21.83
2017-09-22T07:22:01.003Z,23.50
2017-09-22T07:24:29.388Z,17.30
2017-09-22T07:26:57.750Z,26.23
2017-09-22T07:29:25.312Z,21.57
2017-09-22T07:31:54.442Z,20.70
2017-09-22T07:34:22.238Z,20.80
2017-09-22T07:36:49.900Z,23.90
2017-09-22T07:39:17.552Z,19.80
2017-09-22T07:41:45.126Z,22.50
2017-09-22T07:44:12.745Z,26.30
2017-09-22T07:46:40.323Z,21.60
2017-09-22T07:49:08.707Z,20.23
2017-09-22T07:51:37.051Z,21.33
2017-09-22T07:54:04.616Z,22.67
2017-09-22T07:56:32.231Z,22.67
2017-09-22T07:58:59.859Z,24.17
2017-09-22T08:01:27.448Z,19.70
2017-09-22T08:03:55.773Z,22.73
2017-09-22T08:06:23.369Z,20.03
2017-09-22T08:08:51.726Z,20.43
2017-09-22T08:11:19.288Z,20.70
2017-09-22T08:13:46.890Z,28.63
2017-09-22T08:16:15.213Z,23.63
2017-09-22T08:18:42.951Z,21.13
2017-09-22T08:21:11.297Z,28.70
2017-09-22T08:23:38.893Z,19.50
2017-09-22T08:26:07.220Z,19.03
2017-09-22T08:28:34.780Z,25.50
2017-09-22T08:31:02.521Z,19.03
2017-09-22T08:33:30.103Z,20.60
2017-09-22T08:35:57.706Z,20.87
2017-09-22T08:38:25.268Z,33.70
2017-09-22T08:40:53.717Z,18.90
2017-09-22T08:43:21.307Z,21.10
2017-09-22T08:45:48.865Z,19.87
2017-09-22T08:48:16.448Z,21.10
2017-09-22T08:50:44.201Z,27.17
2017-09-22T08:53:11.819Z,22.57
2017-09-22T08:55:39.407Z,19.60
2017-09-22T08:58:07.019Z,23.30
2017-09-22T09:00:34.615Z,22.73
2017-09-22T09:03:02.185Z,20.77
2017-09-22T09:05:29.786Z,26.23
2017-09-22T09:07:57.349Z,25.20
2017-09-22T09:10:24.941Z,22.13
2017-09-22T09:12:52.557Z,21.87
2017-09-22T09:15:20.166Z,22.43
2017-09-22T09:17:47.742Z,20.63
2017-09-22T09:20:16.226Z,23.10
2017-09-22T09:22:44.591Z,19.70
2017-09-22T09:25:12.166Z,19.83
2017-09-22T09:27:39.766Z,20.00
2017-09-22T09:30:07.393Z,22.10
2017-09-22T09:32:34.999Z,22.00
2017-09-22T09:35:03.341Z,22.83
2017-09-22T09:37:30.919Z,24.07
2017-09-22T09:39:59.291Z,20.03
2017-09-22T09:42:27.010Z,20.10
2017-09-22T09:44:54.622Z,14.83
2017-09-22T09:47:22.967Z,15.57
2017-09-22T09:49:50.582Z,22.07
2017-09-22T09:52:18.901Z,19.67
2017-09-22T09:54:46.560Z,23.90
2017-09-22T09:57:14.200Z,16.33
2017-09-22T09:59:41.778Z,23.20
2017-09-22T10:02:09.368Z,13.67
2017-09-22T10:04:36.933Z,17.03
2017-09-22T10:07:04.574Z,16.60
2017-09-22T10:09:32.132Z,22.53
2017-09-22T10:11:59.797Z,15.47
2017-09-22T10:14:27.375Z,18.00
2017-09-22T10:16:54.975Z,16.87
2017-09-22T10:19:22.555Z,18.50
2017-09-22T10:21:50.171Z,18.20
2017-09-22T10:24:17.777Z,18.93
2017-09-22T10:26:45.347Z,16.83
2017-09-22T10:29:12.959Z,15.90
2017-09-22T10:31:40.743Z,21.60
2017-09-22T10:34:08.329Z,22.63
2017-09-22T10:36:36.690Z,18.60
2017-09-22T10:39:04.294Z,17.67
2017-09-22T10:41:31.923Z,23.43
2017-09-22T10:44:00.347Z,16.27
2017-09-22T10:46:28.706Z,16.60
2017-09-22T10:48:56.329Z,17.07
2017-09-22T10:51:23.921Z,16.10
2017-09-22T10:53:51.521Z,19.27
2017-09-22T10:56:19.544Z,14.87
2017-09-22T10:58:47.150Z,17.90
2017-09-22T11:01:14.741Z,17.77
2017-09-22T11:03:43.097Z,19.57
2017-09-22T11:06:10.661Z,22.57
2017-09-22T11:08:38.235Z,24.47
2017-09-22T11:11:05.850Z,18.23
2017-09-22T11:13:33.453Z,13.50
2017-09-22T11:16:01.731Z,23.93
2017-09-22T11:18:29.335Z,19.17
2017-09-22T11:20:56.962Z,25.33
2017-09-22T11:23:24.525Z,13.70
2017-09-22T11:25:52.141Z,17.20
2017-09-22T11:28:19.748Z,18.30
2017-09-22T11:30:47.520Z,16.83
2017-09-22T11:33:15.133Z,19.87
2017-09-22T11:35:42.911Z,15.13
2017-09-22T11:38:10.589Z,19.43
2017-09-22T11:40:38.170Z,12.53
2017-09-22T11:43:05.969Z,11.90
2017-09-22T11:45:34.336Z,12.80
2017-09-22T11:48:01.955Z,11.23
2017-09-22T11:50:29.547Z,17.50
2017-09-22T11:52:57.156Z,15.23
2017-09-22T11:55:25.561Z,15.73
2017-09-22T11:57:53.155Z,14.10
2017-09-22T12:00:20.771Z,13.30
2017-09-22T12:02:49.113Z,8.00
2017-09-22T12:05:16.707Z,15.83
2017-09-22T12:07:45.059Z,12.97
2017-09-22T12:10:12.742Z,12.87
2017-09-22T12:12:40.305Z,13.43
2017-09-22T12:15:07.877Z,12.53
2017-09-22T12:17:35.465Z,10.60
2017-09-22T12:20:03.046Z,12.10
2017-09-22T12:22:30.651Z,14.47
2017-09-22T12:24:58.204Z,9.90
2017-09-22T12:27:25.879Z,12.93
2017-09-22T12:29:53.540Z,11.80
2017-09-22T12:32:21.123Z,15.10
2017-09-22T12:34:48.735Z,14.97
2017-09-22T12:37:17.203Z,13.13
2017-09-22T12:39:45.789Z,10.57
2017-09-22T12:42:13.363Z,15.70
2017-09-22T12:44:41.028Z,10.40
2017-09-22T12:47:08.602Z,10.77
2017-09-22T12:49:36.268Z,12.50
2017-09-22T12:52:03.879Z,10.63
2017-09-22T12:54:31.498Z,12.83
2017-09-22T12:56:59.112Z,17.90
2017-09-22T12:59:27.145Z,10.10
2017-09-22T13:01:54.759Z,13.10
2017-09-22T13:04:23.147Z,10.50
2017-09-22T13:06:51.476Z,16.43
2017-09-22T13:09:19.097Z,10.97
2017-09-22T13:11:47.626Z,10.73
2017-09-22T13:14:15.215Z,10.70
2017-09-22T13:16:42.791Z,16.03
2017-09-22T13:19:11.178Z,13.53
2017-09-22T13:21:38.740Z,9.27
2017-09-22T13:24:06.326Z,9.90
2017-09-22T13:26:34.733Z,12.20
2017-09-22T13:29:02.424Z,15.73
2017-09-22T13:31:30.164Z,8.67
2017-09-22T13:33:57.735Z,16.90
2017-09-22T13:36:25.357Z,10.07
2017-09-22T13:38:52.955Z,8.83
2017-09-22T13:41:20.555Z,9.50
2017-09-22T13:43:48.206Z,10.40
2017-09-22T13:46:15.811Z,11.80
2017-09-22T13:48:43.411Z,10.70
2017-09-22T13:51:10.969Z,11.00
2017-09-22T13:53:39.394Z,17.50
2017-09-22T13:56:06.967Z,14.27
2017-09-22T13:58:34.539Z,15.23
2017-09-22T14:01:02.146Z,8.37
2017-09-22T14:03:29.787Z,15.00
2017-09-22T14:05:57.389Z,6.40
2017-09-22T14:08:24.971Z,11.40
2017-09-22T14:10:52.578Z,11.00
2017-09-22T14:13:20.304Z,9.43
2017-09-22T14:15:47.875Z,6.13
2017-09-22T14:18:15.469Z,8.73
2017-09-22T14:20:43.040Z,7.07
2017-09-22T14:23:10.870Z,9.10
2017-09-22T14:25:38.434Z,11.40
2017-09-22T14:28:06.025Z,13.77
2017-09-22T14:30:33.661Z,8.80
2017-09-22T14:33:01.427Z,8.13
2017-09-22T14:35:29.042Z,10.13
2017-09-22T14:37:57.397Z,11.73
2017-09-22T14:40:24.995Z,13.00
2017-09-22T14:42:53.395Z,10.60
2017-09-22T14:45:20.999Z,13.07
2017-09-22T14:47:48.583Z,10.13
2017-09-22T14:50:16.214Z,10.77
2017-09-22T14:52:43.871Z,10.20
2017-09-22T14:55:11.550Z,9.87
2017-09-22T14:57:39.142Z,8.23
2017-09-22T15:00:06.731Z,7.77
2017-09-22T15:02:35.103Z,7.07
2017-09-22T15:05:02.726Z,4.97
2017-09-22T15:07:30.321Z,4.97
2017-09-22T15:09:57.907Z,5.40
2017-09-22T15:12:26.310Z,4.93
2017-09-22T15:14:53.929Z,4.33
2017-09-22T15:17:21.515Z,5.70
2017-09-22T15:19:49.923Z,5.00
2017-09-22T15:22:17.543Z,6.27
2017-09-22T15:24:45.139Z,8.30
2017-09-22T15:27:13.554Z,5.97
2017-09-22T15:29:41.159Z,5.33
2017-09-22T15:32:08.765Z,4.30
2017-09-22T15:34:36.379Z,4.50
2017-09-22T15:37:05.523Z,7.30
2017-09-22T15:39:34.136Z,8.30
2017-09-22T15:42:01.778Z,9.13
2017-09-22T15:44:30.115Z,6.33
2017-09-22T15:46:57.725Z,9.20
2017-09-22T15:49:25.306Z,6.73
2017-09-22T15:51:52.931Z,9.90
2017-09-22T15:54:20.498Z,9.30
2017-09-22T15:56:48.863Z,8.17
2017-09-22T15:59:16.474Z,7.70
2017-09-22T16:01:44.049Z,9.60
2017-09-22T16:04:11.645Z,7.10
2017-09-22T16:06:39.238Z,8.90
2017-09-22T16:09:08.263Z,7.60
2017-09-22T16:11:35.944Z,6.83
2017-09-22T16:14:03.505Z,5.87
2017-09-22T16:16:31.138Z,6.10
2017-09-22T16:18:59.474Z,6.00
2017-09-22T16:21:27.074Z,7.50
2017-09-22T16:23:55.436Z,6.90
2017-09-22T16:26:22.989Z,4.53
2017-09-22T16:28:50.569Z,7.97
2017-09-22T16:31:18.211Z,5.50
2017-09-22T16:33:45.824Z,7.30
2017-09-22T16:36:13.449Z,7.47
2017-09-22T16:38:41.037Z,8.97
2017-09-22T16:41:08.643Z,7.73
2017-09-22T16:43:36.322Z,5.10
2017-09-22T16:46:03.900Z,6.90
2017-09-22T16:48:31.517Z,6.90
2017-09-22T16:51:00.252Z,5.80
2017-09-22T16:53:27.899Z,7.10
2017-09-22T16:55:55.456Z,4.63
2017-09-22T16:58:23.052Z,5.33
2017-09-22T17:00:50.639Z,6.80
2017-09-22T17:03:18.242Z,6.47
2017-09-22T17:05:45.823Z,6.13
2017-09-22T17:08:13.422Z,6.43
2017-09-22T17:10:41.778Z,7.10
2017-09-22T17:13:09.419Z,7.20
2017-09-22T17:15:37.107Z,5.07
2017-09-22T17:18:04.691Z,7.40
2017-09-22T17:20:32.272Z,7.10
2017-09-22T17:22:59.867Z,5.43
2017-09-22T17:25:28.276Z,6.23
2017-09-22T17:27:55.875Z,6.43
2017-09-22T17:30:23.454Z,7.50
2017-09-22T17:32:51.061Z,5.33
2017-09-22T17:35:18.653Z,7.80
2017-09-22T17:37:46.239Z,7.27
2017-09-22T17:40:14.732Z,7.10
2017-09-22T17:42:43.925Z,9.30
2017-09-22T17:45:11.517Z,8.80
2017-09-22T17:47:39.867Z,7.60
2017-09-22T17:50:08.247Z,9.70
2017-09-22T17:52:35.833Z,12.90
2017-09-22T17:55:04.191Z,6.60
2017-09-22T17:57:31.768Z,10.37
2017-09-22T17:59:59.401Z,11.60
2017-09-22T18:02:26.973Z,14.50
2017-09-22T18:04:54.555Z,10.33
2017-09-22T18:07:22.138Z,9.60
2017-09-22T18:09:50.472Z,9.40
2017-09-22T18:12:18.081Z,10.60
2017-09-22T18:14:45.703Z,12.30
2017-09-22T18:17:13.307Z,15.07
2017-09-22T18:19:41.023Z,12.13
2017-09-22T18:22:08.637Z,14.30
2017-09-22T18:24:36.220Z,13.57
2017-09-22T18:27:04.567Z,14.20
2017-09-22T18:29:32.201Z,16.53
2017-09-22T18:32:01.055Z,14.13
2017-09-22T18:34:29.419Z,17.40
2017-09-22T18:36:58.522Z,18.20
2017-09-22T18:39:26.100Z,23.13
2017-09-22T18:41:54.464Z,19.17
2017-09-22T18:44:22.043Z,20.63
2017-09-22T18:46:50.544Z,18.70
2017-09-22T18:49:18.240Z,19.77
2017-09-22T18:51:45.861Z,23.23
2017-09-22T18:54:14.192Z,22.30
2017-09-22T18:56:41.763Z,23.80
2017-09-22T18:59:09.516Z,23.80
2017-09-22T19:01:37.091Z,23.53
2017-09-22T19:04:04.702Z,24.00
2017-09-22T19:06:33.079Z,26.70
2017-09-22T19:09:01.668Z,25.70
2017-09-22T19:11:30.708Z,27.80
2017-09-22T19:13:58.283Z,28.77
2017-09-22T19:16:25.864Z,21.60
2017-09-22T19:18:53.420Z,23.70
2017-09-22T19:21:21.050Z,27.73
2017-09-22T19:23:48.733Z,23.53
2017-09-22T19:26:16.338Z,23.10
2017-09-22T19:28:43.897Z,27.10
2017-09-22T19:31:11.564Z,26.10
2017-09-22T19:33:39.191Z,26.23
2017-09-22T19:36:06.781Z,22.87
2017-09-22T19:38:34.398Z,26.87
2017-09-22T19:41:02.419Z,25.17
2017-09-22T19:43:30.015Z,24.67
2017-09-22T19:45:58.373Z,23.67
2017-09-22T19:48:25.961Z,24.30
2017-09-22T19:50:54.289Z,32.20
2017-09-22T19:53:21.905Z,24.67
2017-09-22T19:55:49.522Z,25.93
2017-09-22T19:58:17.094Z,26.77
2017-09-22T20:00:44.773Z,35.00
2017-09-22T20:03:12.450Z,35.37
2017-09-22T20:05:40.071Z,29.80
2017-09-22T20:08:07.636Z,28.73
2017-09-22T20:10:35.217Z,33.10
2017-09-22T20:13:03.659Z,26.30
2017-09-22T20:15:32.047Z,29.13
2017-09-22T20:17:59.654Z,31.90
2017-09-22T20:20:27.262Z,38.23
2017-09-22T20:22:55.607Z,40.90
2017-09-22T20:25:23.306Z,37.00
2017-09-22T20:27:51.680Z,45.03
2017-09-22T20:30:19.245Z,47.20
2017-09-22T20:32:46.832Z,56.17
2017-09-22T20:35:15.157Z,58.27
2017-09-22T20:37:42.757Z,56.50
2017-09-22T20:40:11.106Z,59.80
2017-09-22T20:42:39.537Z,62.40
2017-09-22T20:45:07.891Z,62.77
2017-09-22T20:47:36.255Z,66.77
2017-09-22T20:50:03.897Z,66.93
2017-09-22T20:52:31.481Z,70.57
2017-09-22T20:54:59.074Z,69.90
2017-09-22T20:57:26.651Z,76.93
2017-09-22T20:59:55.010Z,84.27
2017-09-22T21:02:23.354Z,72.63
2017-09-22T21:04:50.959Z,69.53
2017-09-22T21:07:20.043Z,81.13
2017-09-22T21:09:47.649Z,73.33
2017-09-22T21:12:15.973Z,68.00
2017-09-22T21:14:43.638Z,71.47
2017-09-22T21:17:11.230Z,66.33
2017-09-22T21:19:39.575Z,70.20
2017-09-22T21:22:07.185Z,70.57
2017-09-22T21:24:34.758Z,68.00
2017-09-22T21:27:02.374Z,73.00
2017-09-22T21:29:29.975Z,66.13
2017-09-22T21:31:57.579Z,78.73
2017-09-22T21:34:25.192Z,70.87
2017-09-22T21:36:52.810Z,69.00
2017-09-22T21:39:20.406Z,60.13
2017-09-22T21:41:47.983Z,72.97
2017-09-22T21:44:15.579Z,68.13
2017-09-22T21:46:43.969Z,67.87
2017-09-22T21:49:12.298Z,61.60
2017-09-22T21:51:39.853Z,69.73
2017-09-22T21:54:07.442Z,72.63
2017-09-22T21:56:35.110Z,73.93
2017-09-22T21:59:03.265Z,78.10
2017-09-22T22:01:30.956Z,68.33
2017-09-22T22:04:04.330Z,70.83
2017-09-22T22:06:37.857Z,62.37
2017-09-22T22:09:05.509Z,68.20
2017-09-22T22:11:34.492Z,78.43
2017-09-22T22:14:02.166Z,67.33
2017-09-22T22:16:29.845Z,66.83
2017-09-22T22:18:57.463Z,64.90
2017-09-22T22:21:25.205Z,66.33
2017-09-22T22:23:53.638Z,74.73
2017-09-22T22:26:21.511Z,67.17
2017-09-22T22:28:49.279Z,70.97
2017-09-22T22:31:16.969Z,60.33
2017-09-22T22:33:44.591Z,66.60
2017-09-22T22:36:24.307Z,73.27
2017-09-22T22:38:53.570Z,71.73
2017-09-22T22:41:21.245Z,58.93
2017-09-22T22:43:49.707Z,70.37
2017-09-22T22:46:17.386Z,67.43
2017-09-22T22:48:45.163Z,70.67
2017-09-22T22:51:12.772Z,60.40
2017-09-22T22:53:40.484Z,66.93
2017-09-22T22:56:08.270Z,67.47
2017-09-22T22:58:36.744Z,65.50
2017-09-22T23:01:04.406Z,65.10
2017-09-22T23:03:32.085Z,67.33
2017-09-22T23:05:59.927Z,67.97
2017-09-22T23:08:27.591Z,65.27
2017-09-22T23:10:55.238Z,79.30
2017-09-22T23:13:22.922Z,67.40
2017-09-22T23:15:50.693Z,73.23
2017-09-22T23:18:18.378Z,65.03
2017-09-22T23:20:46.027Z,69.13
2017-09-22T23:23:13.643Z,62.37
2017-09-22T23:25:42.092Z,66.20
2017-09-22T23:28:09.752Z,65.43
2017-09-22T23:30:37.508Z,67.33
2017-09-22T23:33:05.120Z,69.17
2017-09-22T23:35:33.575Z,65.60
2017-09-22T23:38:01.196Z,58.00
2017-09-22T23:40:28.918Z,75.07
2017-09-22T23:42:58.106Z,67.07
2017-09-22T23:45:25.720Z,69.13
2017-09-22T23:47:54.143Z,73.30
2017-09-22T23:50:21.783Z,76.17
2017-09-22T23:52:49.430Z,73.73
2017-09-22T23:55:17.854Z,65.53
2017-09-22T23:57:45.495Z,76.20
